createdAt,value
2023-11-27T00:01:12.901Z,90.10
2023-11-27T00:03:19.970Z,90.40
2023-11-27T00:05:26.386Z,91.40
2023-11-27T00:07:35.153Z,92.80
2023-11-27T00:09:42.009Z,93.20
2023-11-27T00:11:49.406Z,93.20
2023-11-27T00:13:56.260Z,92.80
2023-11-27T00:16:03.328Z,93.50
2023-11-27T00:18:10.344Z,94.10
2023-11-27T00:20:17.554Z,92.30
2023-11-27T00:22:24.616Z,90.20
2023-11-27T00:24:32.336Z,90.10
2023-11-27T00:26:39.389Z,90.40
2023-11-27T00:28:45.761Z,90.50
2023-11-27T00:30:54.087Z,90.60
2023-11-27T00:33:01.255Z,89.40
2023-11-27T00:35:09.024Z,89.40
2023-11-27T00:37:16.119Z,90.10
2023-11-27T00:39:23.395Z,90.50
2023-11-27T00:41:31.896Z,90.70
2023-11-27T00:43:39.162Z,90.80
2023-11-27T00:45:46.259Z,90.00
2023-11-27T00:47:53.701Z,89.90
2023-11-27T00:50:01.059Z,89.60
2023-11-27T00:52:08.869Z,89.60
2023-11-27T00:54:14.432Z,89.20
2023-11-27T00:56:21.753Z,87.90
2023-11-27T00:58:30.688Z,86.10
2023-11-27T01:00:38.605Z,87.00
2023-11-27T01:02:44.389Z,85.10
2023-11-27T01:04:51.901Z,84.90
2023-11-27T01:06:59.003Z,84.70
2023-11-27T01:09:08.694Z,83.20
2023-11-27T01:11:15.739Z,83.00
2023-11-27T01:13:23.543Z,82.70
2023-11-27T01:15:32.375Z,83.50
2023-11-27T01:17:38.495Z,83.60
2023-11-27T01:19:45.395Z,84.10
2023-11-27T01:21:55.053Z,82.20
2023-11-27T01:24:02.739Z,82.00
2023-11-27T01:26:10.354Z,82.80
2023-11-27T01:28:18.401Z,82.00
2023-11-27T01:30:25.784Z,80.30
2023-11-27T01:32:34.791Z,80.70
2023-11-27T01:34:42.551Z,82.20
2023-11-27T01:36:49.645Z,80.50
2023-11-27T01:38:56.155Z,79.30
2023-11-27T01:41:03.204Z,80.00
2023-11-27T01:43:18.263Z,80.40
2023-11-27T01:45:25.456Z,79.10
2023-11-27T01:47:34.955Z,78.60
2023-11-27T01:49:43.118Z,78.50
2023-11-27T01:51:51.697Z,74.70
2023-11-27T01:54:01.382Z,75.90
2023-11-27T01:56:09.180Z,75.20
2023-11-27T01:58:18.562Z,74.10
2023-11-27T02:00:25.101Z,74.20
2023-11-27T02:02:34.427Z,75.10
2023-11-27T02:04:40.566Z,74.60
2023-11-27T02:06:47.727Z,73.10
2023-11-27T02:08:55.069Z,72.20
2023-11-27T02:11:00.683Z,71.30
2023-11-27T02:13:08.095Z,70.70
2023-11-27T02:15:14.440Z,72.00
2023-11-27T02:17:22.140Z,72.40
2023-11-27T02:19:33.958Z,71.20
2023-11-27T02:21:40.040Z,70.10
2023-11-27T02:23:48.661Z,71.10
2023-11-27T02:25:55.771Z,70.20
2023-11-27T02:28:03.510Z,70.60
2023-11-27T02:30:11.840Z,67.80
2023-11-27T02:32:18.651Z,68.90
2023-11-27T02:34:24.238Z,68.00
2023-11-27T02:36:35.806Z,67.30
2023-11-27T02:38:42.725Z,68.40
2023-11-27T02:40:51.906Z,68.10
2023-11-27T02:42:58.879Z,68.00
2023-11-27T02:45:07.484Z,67.80
2023-11-27T02:47:14.582Z,66.30
2023-11-27T02:49:22.031Z,66.10
2023-11-27T02:51:27.539Z,65.50
2023-11-27T02:53:34.811Z,65.50
2023-11-27T02:55:42.275Z,64.80
2023-11-27T02:57:51.865Z,64.30
2023-11-27T02:59:58.744Z,62.50
2023-11-27T03:02:05.867Z,62.20
2023-11-27T03:04:12.997Z,61.60
2023-11-27T03:06:20.453Z,62.20
2023-11-27T03:08:27.517Z,62.00
2023-11-27T03:10:35.356Z,61.20
2023-11-27T03:12:41.116Z,60.80
2023-11-27T03:14:49.911Z,61.00
2023-11-27T03:16:58.565Z,62.90
2023-11-27T03:19:04.316Z,61.90
2023-11-27T03:21:22.760Z,62.00
2023-11-27T03:23:30.144Z,61.90
2023-11-27T03:25:38.025Z,61.20
2023-11-27T03:27:45.100Z,59.20
2023-11-27T03:29:54.375Z,60.70
2023-11-27T03:32:01.502Z,59.90
2023-11-27T03:34:09.199Z,59.90
2023-11-27T03:36:16.849Z,60.80
2023-11-27T03:38:23.959Z,61.20
2023-11-27T03:40:32.509Z,60.00
2023-11-27T03:42:38.303Z,61.00
2023-11-27T03:44:46.002Z,59.30
2023-11-27T03:46:55.495Z,59.40
2023-11-27T03:49:02.991Z,60.30
2023-11-27T03:51:10.353Z,60.20
2023-11-27T03:53:17.755Z,59.90
2023-11-27T03:55:26.723Z,58.40
2023-11-27T03:57:32.783Z,59.20
2023-11-27T03:59:39.770Z,59.60
2023-11-27T04:01:46.034Z,59.30
2023-11-27T04:03:56.145Z,59.60
2023-11-27T04:06:06.617Z,59.50
2023-11-27T04:08:12.453Z,59.40
2023-11-27T04:10:20.665Z,59.40
2023-11-27T04:12:27.860Z,58.20
2023-11-27T04:14:35.294Z,57.80
2023-11-27T04:16:42.476Z,58.80
2023-11-27T04:18:50.625Z,57.50
2023-11-27T04:20:59.333Z,57.60
2023-11-27T04:23:06.504Z,59.70
2023-11-27T04:25:13.583Z,57.30
2023-11-27T04:27:20.738Z,56.70
2023-11-27T04:29:26.639Z,57.80
2023-11-27T04:31:34.658Z,58.80
2023-11-27T04:33:42.048Z,58.20
2023-11-27T04:35:50.039Z,55.90
2023-11-27T04:37:59.927Z,55.60
2023-11-27T04:40:07.221Z,54.60
2023-11-27T04:42:14.635Z,55.40
2023-11-27T04:44:25.824Z,54.30
2023-11-27T04:46:33.286Z,55.00
2023-11-27T04:48:40.697Z,56.90
2023-11-27T04:50:47.948Z,55.90
2023-11-27T04:52:55.057Z,53.40
2023-11-27T04:55:05.417Z,54.70
2023-11-27T04:57:12.503Z,54.80
2023-11-27T04:59:19.784Z,56.00
2023-11-27T05:01:27.454Z,54.60
2023-11-27T05:03:35.043Z,54.10
2023-11-27T05:05:42.480Z,53.90
2023-11-27T05:07:49.665Z,53.10
2023-11-27T05:09:56.797Z,53.60
2023-11-27T05:12:07.072Z,54.10
2023-11-27T05:14:12.753Z,52.90
2023-11-27T05:16:20.348Z,52.70
2023-11-27T05:18:27.507Z,53.90
2023-11-27T05:20:35.008Z,54.10
2023-11-27T05:22:42.263Z,53.50
2023-11-27T05:24:49.789Z,53.00
2023-11-27T05:26:57.872Z,52.50
2023-11-27T05:29:08.246Z,53.40
2023-11-27T05:31:17.077Z,53.80
2023-11-27T05:33:26.269Z,52.80
2023-11-27T05:35:34.519Z,52.80
2023-11-27T05:37:40.406Z,52.60
2023-11-27T05:39:47.292Z,53.00
2023-11-27T05:41:55.129Z,52.30
2023-11-27T05:44:04.860Z,52.50
2023-11-27T05:46:14.537Z,51.00
2023-11-27T05:48:21.928Z,53.00
2023-11-27T05:50:29.313Z,52.40
2023-11-27T05:52:36.296Z,52.00
2023-11-27T05:54:43.673Z,52.40
2023-11-27T05:56:50.944Z,52.90
2023-11-27T05:58:58.177Z,52.10
2023-11-27T06:01:05.251Z,52.20
2023-11-27T06:03:13.219Z,51.50
2023-11-27T06:05:20.859Z,51.20
2023-11-27T06:07:28.136Z,53.00
2023-11-27T06:09:38.053Z,50.20
2023-11-27T06:11:45.152Z,50.60
2023-11-27T06:13:51.139Z,51.30
2023-11-27T06:15:58.319Z,50.40
2023-11-27T06:18:05.526Z,51.10
2023-11-27T06:20:16.594Z,49.30
2023-11-27T06:22:23.879Z,49.70
2023-11-27T06:24:31.737Z,51.00
2023-11-27T06:26:39.085Z,50.70
2023-11-27T06:28:46.145Z,50.10
2023-11-27T06:30:56.397Z,50.20
2023-11-27T06:33:03.670Z,50.50
2023-11-27T06:35:14.054Z,49.80
2023-11-27T06:37:21.274Z,49.50
2023-11-27T06:39:29.784Z,49.20
2023-11-27T06:41:37.281Z,51.30
2023-11-27T06:43:44.687Z,49.30
2023-11-27T06:45:54.013Z,49.80
2023-11-27T06:48:01.369Z,49.30
2023-11-27T06:50:09.414Z,49.10
2023-11-27T06:52:19.382Z,49.60
2023-11-27T06:54:26.776Z,48.80
2023-11-27T06:56:35.553Z,48.70
2023-11-27T06:58:42.620Z,49.90
2023-11-27T07:00:49.878Z,48.60
2023-11-27T07:02:56.708Z,49.20
2023-11-27T07:05:03.774Z,50.00
2023-11-27T07:07:11.293Z,50.60
2023-11-27T07:09:20.896Z,49.30
2023-11-27T07:11:29.090Z,48.50
2023-11-27T07:13:36.464Z,48.70
2023-11-27T07:15:43.516Z,49.00
2023-11-27T07:17:50.924Z,49.10
2023-11-27T07:19:57.836Z,49.80
2023-11-27T07:22:05.534Z,49.20
2023-11-27T07:24:13.064Z,49.90
2023-11-27T07:26:22.324Z,49.40
2023-11-27T07:28:29.622Z,49.70
2023-11-27T07:30:37.126Z,50.00
2023-11-27T07:32:43.319Z,49.20
2023-11-27T07:34:50.436Z,49.40
2023-11-27T07:36:57.746Z,49.30
2023-11-27T07:39:04.876Z,49.20
2023-11-27T07:41:12.290Z,50.30
2023-11-27T07:43:20.925Z,50.00
2023-11-27T07:45:28.129Z,47.60
2023-11-27T07:47:35.255Z,49.00
2023-11-27T07:49:42.710Z,49.00
2023-11-27T07:51:49.826Z,47.80
2023-11-27T07:53:57.879Z,48.40
2023-11-27T07:56:05.132Z,48.60
2023-11-27T07:58:12.240Z,48.30
2023-11-27T08:00:20.259Z,49.00
2023-11-27T08:02:27.381Z,49.10
2023-11-27T08:04:35.034Z,48.80
2023-11-27T08:06:42.661Z,48.00
2023-11-27T08:08:50.061Z,48.40
2023-11-27T08:10:59.098Z,48.70
2023-11-27T08:13:04.875Z,49.30
2023-11-27T08:15:20.092Z,49.90
2023-11-27T08:17:29.439Z,50.20
2023-11-27T08:19:37.216Z,51.30
2023-11-27T08:21:42.748Z,50.00
2023-11-27T08:23:50.189Z,50.20
2023-11-27T08:25:56.014Z,51.10
2023-11-27T08:28:04.583Z,50.00
2023-11-27T08:30:13.481Z,49.90
2023-11-27T08:32:20.838Z,50.20
2023-11-27T08:34:30.936Z,50.10
2023-11-27T08:36:39.580Z,51.20
2023-11-27T08:38:47.237Z,50.90
2023-11-27T08:40:53.312Z,51.10
2023-11-27T08:43:02.477Z,51.20
2023-11-27T08:45:12.832Z,51.70
2023-11-27T08:47:19.730Z,51.00
2023-11-27T08:49:28.707Z,51.30
2023-11-27T08:51:35.815Z,51.70
2023-11-27T08:53:43.325Z,51.30
2023-11-27T08:55:50.302Z,51.90
2023-11-27T08:57:56.055Z,52.00
2023-11-27T09:00:04.953Z,51.30
2023-11-27T09:02:12.357Z,51.70
2023-11-27T09:04:21.170Z,51.60
2023-11-27T09:06:31.018Z,52.30
2023-11-27T09:08:37.860Z,52.60
2023-11-27T09:10:46.264Z,51.70
2023-11-27T09:12:51.951Z,51.40
2023-11-27T09:14:59.096Z,52.50
2023-11-27T09:17:06.035Z,51.10
2023-11-27T09:19:14.260Z,51.40
2023-11-27T09:21:21.592Z,51.30
2023-11-27T09:23:30.602Z,51.20
2023-11-27T09:25:38.102Z,51.30
2023-11-27T09:27:45.605Z,51.30
2023-11-27T09:29:51.389Z,51.50
2023-11-27T09:31:58.534Z,50.90
2023-11-27T09:34:06.289Z,52.10
2023-11-27T09:36:17.246Z,51.80
2023-11-27T09:38:24.127Z,52.30
2023-11-27T09:40:43.193Z,52.50
2023-11-27T09:42:50.667Z,52.00
2023-11-27T09:44:58.294Z,52.20
2023-11-27T09:47:07.361Z,52.10
2023-11-27T09:49:18.187Z,52.50
2023-11-27T09:51:25.320Z,52.80
2023-11-27T09:53:38.119Z,53.20
2023-11-27T09:55:51.535Z,53.60
2023-11-27T09:58:01.092Z,53.90
2023-11-27T10:00:10.192Z,53.90
2023-11-27T10:02:17.476Z,53.90
2023-11-27T10:04:24.585Z,53.70
2023-11-27T10:06:36.161Z,53.70
2023-11-27T10:08:43.248Z,54.20
2023-11-27T10:10:52.769Z,54.40
2023-11-27T10:13:09.807Z,54.80
2023-11-27T10:15:22.969Z,55.30
2023-11-27T10:17:30.523Z,55.90
2023-11-27T10:19:42.343Z,56.60
2023-11-27T10:21:49.484Z,56.80
2023-11-27T10:23:56.757Z,56.90
2023-11-27T10:26:06.142Z,57.60
2023-11-27T10:28:15.755Z,57.70
2023-11-27T10:30:27.423Z,57.80
2023-11-27T10:32:34.604Z,58.70
2023-11-27T10:34:42.835Z,58.90
2023-11-27T10:36:58.438Z,59.20
2023-11-27T10:39:16.182Z,59.30
2023-11-27T10:41:26.137Z,59.20
2023-11-27T10:43:34.749Z,59.90
2023-11-27T10:45:42.725Z,60.10
2023-11-27T10:47:52.143Z,60.00
2023-11-27T10:50:02.603Z,60.50
2023-11-27T10:52:11.249Z,60.50
2023-11-27T10:54:19.657Z,60.70
2023-11-27T10:56:32.791Z,61.20
2023-11-27T10:58:40.613Z,61.10
2023-11-27T11:00:58.500Z,61.10
2023-11-27T11:03:09.514Z,61.40
2023-11-27T11:05:17.125Z,61.60
2023-11-27T11:07:29.584Z,62.70
2023-11-27T11:09:37.656Z,62.30
2023-11-27T11:11:51.793Z,62.50
2023-11-27T11:13:59.855Z,62.00
2023-11-27T11:16:21.047Z,63.00
2023-11-27T11:18:40.359Z,64.70
2023-11-27T11:21:09.194Z,66.30
2023-11-27T11:23:31.709Z,68.80
2023-11-27T11:25:50.237Z,66.30
2023-11-27T11:28:08.009Z,69.70
2023-11-27T11:30:16.360Z,72.90
2023-11-27T11:32:30.501Z,73.10
2023-11-27T11:34:42.701Z,73.50
2023-11-27T11:36:48.347Z,73.70
2023-11-27T11:38:56.956Z,74.10
2023-11-27T11:41:03.794Z,74.70
2023-11-27T11:43:13.423Z,74.50
2023-11-27T11:45:23.255Z,74.80
2023-11-27T11:47:33.272Z,73.30
2023-11-27T11:49:40.383Z,74.50
2023-11-27T11:52:07.822Z,75.60
2023-11-27T11:56:59.296Z,76.70
2023-11-27T11:59:17.260Z,76.80
2023-11-27T12:01:24.704Z,76.70
2023-11-27T12:03:35.374Z,76.60
2023-11-27T12:05:42.999Z,76.80
2023-11-27T12:07:51.830Z,75.40
2023-11-27T12:09:59.392Z,75.20
2023-11-27T12:12:06.479Z,75.20
2023-11-27T12:14:17.260Z,74.10
2023-11-27T12:16:25.092Z,77.20
2023-11-27T12:18:32.552Z,78.40
2023-11-27T12:20:39.899Z,78.50
2023-11-27T12:22:50.202Z,78.90
2023-11-27T12:24:57.799Z,78.80
2023-11-27T12:27:08.321Z,78.50
2023-11-27T12:29:18.297Z,76.30
2023-11-27T12:31:30.198Z,77.70
2023-11-27T12:33:37.730Z,76.90
2023-11-27T12:35:47.585Z,76.70
2023-11-27T12:37:56.087Z,76.10
2023-11-27T12:40:03.288Z,77.10
2023-11-27T12:42:16.044Z,79.50
2023-11-27T12:44:25.447Z,80.70
2023-11-27T12:46:32.757Z,80.40
2023-11-27T12:48:41.190Z,80.00
2023-11-27T12:50:48.474Z,80.20
2023-11-27T12:53:01.979Z,79.50
2023-11-27T12:55:15.088Z,77.70
2023-11-27T12:57:25.580Z,78.40
2023-11-27T12:59:34.087Z,75.70
2023-11-27T13:01:42.657Z,75.10
2023-11-27T13:03:50.990Z,74.20
2023-11-27T13:06:01.906Z,74.50
2023-11-27T13:08:09.092Z,74.70
2023-11-27T13:10:17.435Z,73.80
2023-11-27T13:12:27.927Z,74.10
2023-11-27T13:14:40.062Z,73.20
2023-11-27T13:16:49.333Z,73.80
2023-11-27T13:18:56.701Z,72.90
2023-11-27T13:21:10.635Z,72.80
2023-11-27T13:23:18.259Z,73.00
2023-11-27T13:25:37.344Z,73.20
2023-11-27T13:27:47.036Z,72.70
2023-11-27T13:29:56.477Z,72.90
2023-11-27T13:32:04.252Z,72.70
2023-11-27T13:34:31.415Z,72.80
2023-11-27T13:36:44.180Z,72.70
2023-11-27T13:38:51.333Z,73.70
2023-11-27T13:40:58.906Z,73.10
2023-11-27T13:43:09.311Z,73.20
2023-11-27T13:45:18.882Z,73.20
2023-11-27T13:47:25.582Z,73.20
2023-11-27T13:49:33.980Z,73.60
2023-11-27T13:51:39.527Z,73.50
2023-11-27T13:53:46.599Z,73.30
2023-11-27T13:55:57.113Z,73.60
2023-11-27T13:58:04.344Z,74.20
2023-11-27T14:00:22.919Z,73.50
2023-11-27T14:02:39.141Z,74.10
2023-11-27T14:04:56.016Z,73.80
2023-11-27T14:07:03.672Z,73.50
2023-11-27T14:09:31.058Z,74.00
2023-11-27T14:11:36.996Z,73.60
2023-11-27T14:13:43.855Z,73.90
2023-11-27T14:15:50.212Z,73.40
2023-11-27T14:18:23.195Z,73.70
2023-11-27T14:20:47.276Z,73.70
2023-11-27T14:25:51.602Z,73.30
2023-11-27T14:28:12.025Z,73.30
2023-11-27T14:30:24.785Z,73.10
2023-11-27T14:32:38.955Z,73.80
2023-11-27T14:34:47.605Z,73.50
2023-11-27T14:36:54.994Z,73.50
2023-11-27T14:39:01.766Z,73.80
2023-11-27T14:41:10.574Z,73.40
2023-11-27T14:43:17.722Z,73.40
2023-11-27T14:45:24.914Z,73.50
2023-11-27T14:47:33.519Z,73.00
2023-11-27T14:49:41.132Z,72.90
2023-11-27T14:51:50.418Z,72.80
2023-11-27T14:54:01.996Z,72.90
2023-11-27T14:56:11.855Z,72.80
2023-11-27T14:58:19.089Z,72.60
2023-11-27T15:00:29.808Z,72.60
2023-11-27T15:02:38.217Z,72.50
2023-11-27T15:04:46.291Z,72.40
2023-11-27T15:06:53.764Z,72.20
2023-11-27T15:09:01.793Z,72.30
2023-11-27T15:11:12.739Z,72.00
2023-11-27T15:13:22.184Z,72.20
2023-11-27T15:15:30.757Z,72.20
2023-11-27T15:17:39.282Z,72.30
2023-11-27T15:19:47.587Z,71.70
2023-11-27T15:21:58.211Z,71.90
2023-11-27T15:24:05.906Z,71.90
2023-11-27T15:26:15.744Z,71.50
2023-11-27T15:28:25.650Z,71.90
2023-11-27T15:30:33.936Z,71.80
2023-11-27T15:32:42.123Z,71.90
2023-11-27T15:34:49.163Z,71.80
2023-11-27T15:36:56.406Z,71.80
2023-11-27T15:39:08.163Z,71.70
2023-11-27T15:41:17.687Z,72.30
2023-11-27T15:43:25.250Z,72.30
2023-11-27T15:45:32.448Z,71.70
2023-11-27T15:47:39.688Z,72.20
2023-11-27T15:49:47.051Z,72.30
2023-11-27T15:51:54.095Z,72.70
2023-11-27T15:54:01.436Z,72.60
2023-11-27T15:56:11.453Z,73.30
2023-11-27T15:58:20.666Z,73.30
2023-11-27T16:00:28.730Z,73.20
2023-11-27T16:02:36.303Z,73.30
2023-11-27T16:04:43.799Z,73.30
2023-11-27T16:06:51.424Z,73.30
2023-11-27T16:08:57.176Z,73.20
2023-11-27T16:11:06.299Z,73.30
2023-11-27T16:13:13.679Z,73.50
2023-11-27T16:15:22.780Z,73.60
2023-11-27T16:17:29.905Z,73.70
2023-11-27T16:19:37.221Z,73.90
2023-11-27T16:21:44.433Z,74.20
2023-11-27T16:23:52.317Z,74.60
2023-11-27T16:25:58.298Z,74.70
2023-11-27T16:28:06.421Z,75.00
2023-11-27T16:30:19.415Z,75.40
2023-11-27T16:32:29.337Z,75.30
2023-11-27T16:34:36.468Z,76.10
2023-11-27T16:36:43.572Z,77.10
2023-11-27T16:38:51.277Z,78.00
2023-11-27T16:40:58.795Z,78.50
2023-11-27T16:43:06.244Z,78.60
2023-11-27T16:45:14.140Z,79.10
2023-11-27T16:47:28.070Z,76.50
2023-11-27T16:49:42.971Z,77.80
2023-11-27T16:51:49.867Z,78.30
2023-11-27T16:53:57.117Z,77.90
2023-11-27T16:56:04.345Z,78.20
2023-11-27T16:58:12.896Z,77.40
2023-11-27T17:00:25.248Z,78.20
2023-11-27T17:02:32.964Z,77.90
2023-11-27T17:04:41.684Z,80.00
2023-11-27T17:06:51.262Z,81.00
2023-11-27T17:08:58.992Z,79.70
2023-11-27T17:11:06.055Z,78.80
2023-11-27T17:13:14.485Z,78.20
2023-11-27T17:15:22.049Z,79.50
2023-11-27T17:17:28.286Z,78.10
2023-11-27T17:19:35.804Z,79.00
2023-11-27T17:21:44.347Z,80.00
2023-11-27T17:23:52.539Z,78.80
2023-11-27T17:25:58.257Z,79.00
2023-11-27T17:28:07.234Z,78.40
2023-11-27T17:30:15.426Z,79.90
2023-11-27T17:32:22.862Z,80.50
2023-11-27T17:34:30.007Z,78.90
2023-11-27T17:36:37.378Z,79.30
2023-11-27T17:38:46.223Z,81.40
2023-11-27T17:40:53.615Z,81.90
2023-11-27T17:43:01.390Z,82.20
2023-11-27T17:45:11.296Z,82.60
2023-11-27T17:47:19.773Z,82.70
2023-11-27T17:49:26.894Z,82.80
2023-11-27T17:51:33.698Z,83.60
2023-11-27T17:53:41.217Z,82.50
2023-11-27T17:55:57.211Z,82.80
2023-11-27T17:58:07.081Z,82.70
2023-11-27T18:00:15.938Z,84.00
2023-11-27T18:02:23.330Z,85.00
2023-11-27T18:04:30.966Z,84.10
2023-11-27T18:06:42.479Z,84.60
2023-11-27T18:08:49.651Z,85.00
2023-11-27T18:10:58.275Z,84.60
2023-11-27T18:13:06.244Z,84.10
2023-11-27T18:15:17.539Z,85.00
2023-11-27T18:17:25.057Z,85.70
2023-11-27T18:19:32.248Z,86.60
2023-11-27T18:21:41.263Z,87.70
2023-11-27T18:23:48.111Z,88.10
2023-11-27T18:25:56.979Z,87.80
2023-11-27T18:28:03.849Z,86.30
2023-11-27T18:30:13.070Z,86.10
2023-11-27T18:32:20.725Z,86.90
2023-11-27T18:34:29.343Z,87.60
2023-11-27T18:36:36.801Z,87.90
2023-11-27T18:38:44.428Z,87.90
2023-11-27T18:40:52.892Z,87.00
2023-11-27T18:43:02.999Z,87.40
2023-11-27T18:45:11.685Z,87.80
2023-11-27T18:47:18.848Z,87.20
2023-11-27T18:49:28.332Z,87.40
2023-11-27T18:51:36.197Z,88.70
2023-11-27T18:53:44.113Z,89.40
2023-11-27T18:55:49.727Z,89.00
2023-11-27T18:57:56.873Z,89.10
2023-11-27T19:00:07.112Z,88.40
2023-11-27T19:02:14.357Z,87.70
2023-11-27T19:04:20.248Z,88.40
2023-11-27T19:06:27.737Z,88.80
2023-11-27T19:08:34.795Z,90.00
2023-11-27T19:10:42.447Z,89.50
2023-11-27T19:12:50.136Z,89.80
2023-11-27T19:14:57.540Z,89.90
2023-11-27T19:17:06.518Z,89.90
2023-11-27T19:19:14.107Z,89.50
2023-11-27T19:21:21.300Z,89.90
2023-11-27T19:23:28.802Z,91.00
2023-11-27T19:25:37.038Z,90.70
2023-11-27T19:27:44.697Z,90.40
2023-11-27T19:29:52.661Z,90.00
2023-11-27T19:32:00.045Z,90.40
2023-11-27T19:34:08.740Z,90.50
2023-11-27T19:36:22.900Z,90.40
2023-11-27T19:38:32.594Z,91.50
2023-11-27T19:40:40.641Z,90.30
2023-11-27T19:42:47.433Z,90.70
2023-11-27T19:44:54.520Z,91.60
2023-11-27T19:47:01.561Z,91.20
2023-11-27T19:49:11.183Z,92.00
2023-11-27T19:51:18.345Z,92.70
2023-11-27T19:53:25.624Z,92.20
2023-11-27T19:55:33.215Z,92.30
2023-11-27T19:57:40.341Z,93.10
2023-11-27T19:59:47.874Z,92.90
2023-11-27T20:01:56.098Z,92.90
2023-11-27T20:04:03.261Z,92.50
2023-11-27T20:06:12.947Z,91.30
2023-11-27T20:08:20.029Z,91.20
2023-11-27T20:10:27.705Z,91.60
2023-11-27T20:12:35.091Z,92.80
2023-11-27T20:14:42.434Z,93.60
2023-11-27T20:16:49.467Z,93.90
2023-11-27T20:18:56.329Z,94.00
2023-11-27T20:21:03.409Z,93.70
2023-11-27T20:23:12.295Z,93.40
2023-11-27T20:25:19.435Z,92.80
2023-11-27T20:27:30.610Z,92.60
2023-11-27T20:29:39.000Z,93.00
2023-11-27T20:31:46.118Z,93.20
2023-11-27T20:33:53.972Z,93.50
2023-11-27T20:36:01.030Z,92.80
2023-11-27T20:38:08.619Z,92.70
2023-11-27T20:40:17.910Z,93.30
2023-11-27T20:42:25.681Z,93.40
2023-11-27T20:44:37.106Z,94.00
2023-11-27T20:46:49.194Z,94.10
2023-11-27T20:48:56.331Z,94.70
2023-11-27T20:51:04.542Z,94.60
2023-11-27T20:53:11.363Z,94.70
2023-11-27T20:55:20.499Z,94.90
2023-11-27T20:57:28.081Z,94.30
2023-11-27T20:59:35.387Z,94.90
2023-11-27T21:01:43.337Z,95.10
2023-11-27T21:03:52.474Z,96.60
2023-11-27T21:05:59.330Z,97.40
2023-11-27T21:08:06.418Z,97.60
2023-11-27T21:10:14.430Z,97.50
2023-11-27T21:12:22.328Z,96.20
2023-11-27T21:14:29.455Z,96.30
2023-11-27T21:16:39.490Z,97.00
2023-11-27T21:18:47.036Z,96.90
2023-11-27T21:20:54.133Z,96.00
2023-11-27T21:23:01.434Z,96.20
2023-11-27T21:25:09.486Z,96.90
2023-11-27T21:27:16.630Z,97.10
2023-11-27T21:29:25.241Z,97.50
2023-11-27T21:31:32.976Z,96.50
2023-11-27T21:33:40.434Z,96.80
2023-11-27T21:35:47.682Z,97.10
2023-11-27T21:37:54.795Z,96.40
2023-11-27T21:40:02.228Z,96.50
2023-11-27T21:42:09.780Z,96.80
2023-11-27T21:44:16.610Z,96.60
2023-11-27T21:46:24.212Z,96.40
2023-11-27T21:48:31.286Z,97.20
2023-11-27T21:50:38.654Z,97.80
2023-11-27T21:52:45.836Z,98.50
2023-11-27T21:54:53.214Z,98.20
2023-11-27T21:56:58.999Z,97.30
2023-11-27T21:59:06.276Z,96.70
2023-11-27T22:01:17.440Z,97.30
2023-11-27T22:03:27.098Z,98.40
2023-11-27T22:05:34.238Z,99.50
2023-11-27T22:07:42.113Z,99.90
2023-11-27T22:09:53.376Z,99.90
2023-11-27T22:12:00.478Z,99.90
2023-11-27T22:14:07.435Z,99.90
2023-11-27T22:16:15.428Z,99.90
2023-11-27T22:18:22.507Z,99.80
2023-11-27T22:20:31.085Z,99.30
2023-11-27T22:22:39.907Z,98.40
2023-11-27T22:24:47.044Z,98.30
2023-11-27T22:26:54.359Z,98.00
2023-11-27T22:29:01.165Z,98.10
2023-11-27T22:31:08.620Z,97.90
2023-11-27T22:33:15.470Z,98.10
2023-11-27T22:35:22.873Z,98.10
2023-11-27T22:37:32.329Z,97.70
2023-11-27T22:39:39.727Z,97.70
2023-11-27T22:41:48.005Z,96.90
2023-11-27T22:43:55.476Z,96.80
2023-11-27T22:46:02.371Z,97.20
2023-11-27T22:48:09.930Z,98.20
2023-11-27T22:50:16.910Z,98.80
2023-11-27T22:52:23.983Z,98.70
2023-11-27T22:54:32.902Z,98.20
2023-11-27T22:56:40.286Z,97.80
2023-11-27T22:58:47.771Z,96.90
2023-11-27T23:00:55.246Z,97.00
2023-11-27T23:03:02.635Z,97.20
2023-11-27T23:05:10.620Z,97.90
2023-11-27T23:07:17.910Z,98.20
2023-11-27T23:09:24.767Z,98.10
2023-11-27T23:11:33.735Z,97.60
2023-11-27T23:13:41.065Z,97.50
2023-11-27T23:15:48.245Z,97.20
2023-11-27T23:17:55.349Z,96.90
2023-11-27T23:20:02.855Z,96.70
2023-11-27T23:22:10.524Z,96.50
2023-11-27T23:24:24.432Z,96.70
2023-11-27T23:26:35.944Z,95.90
2023-11-27T23:28:43.251Z,95.90
2023-11-27T23:30:50.461Z,97.00
2023-11-27T23:32:57.912Z,97.10
2023-11-27T23:35:03.630Z,97.70
2023-11-27T23:37:11.569Z,97.50
2023-11-27T23:39:18.778Z,96.60
2023-11-27T23:41:26.307Z,97.00
2023-11-27T23:43:34.971Z,97.10
2023-11-27T23:45:42.392Z,98.10
2023-11-27T23:47:49.493Z,99.00
2023-11-27T23:49:56.778Z,99.20
2023-11-27T23:52:03.781Z,98.10
2023-11-27T23:54:11.151Z,98.20
2023-11-27T23:56:17.960Z,98.40
2023-11-27T23:58:25.010Z,99.20
